Wargrave, United Kingdom
Current Conditions -  °F | °C
As of 1:50 PM on Tuesday 21 Oct 2014 (Local Time) from EGUB Reporting Station
Few Clouds Few Clouds  
Wind Chill: 13°   Ceiling: Unl
Heat Index: 13°   Visibility: 6mi
Dew Point:   Wind: 25mph
Humidity: 47%   Direction: 250°WSW
Pressure: 29.74"   Gusts: 38mph
Location:  51.5°N, 0.87°W
Report Text: EGUB 211250Z 25022G33KT 9999 FEW035CB 13/02 Q1007 BLU TEMPO 6000 SHRA SCT035CB WHT
Loading
Personal Weather Stations






























Interactive Weather Map
Tropical Storm Tracking
New forecast layout! Learn more

10-Day Weather Forecast

Advertisements
Track Severe Weather on mobile